Time;durP1;ratioP1;P1;durP2;ratioP2;P2;SDS_P1;SDS_P2;PMS_P1;PMS_P2;Temp;Humidity;BMP_temperature;BMP_pressure;BME280_temperature;BME280_humidity;BME280_pressure;Samples;Min_cycle;Max_cycle;Signal;HPM_P1;HPM_P2
2022/03/06 00:01:50;;;;;;;;;;;;;;;;;;5078139;28;1169;-79
2022/03/06 00:04:16;;;;;;;;;;;;;;;;;;5083464;28;1384;-80
2022/03/06 00:06:41;;;;;;;;;;;;;;;;;;5084073;28;1116;-79
2022/03/06 00:09:10;;;;;;;;;;;;;;;;;;5065695;28;1215;-79
2022/03/06 00:11:35;;;;;;;;;;;;;;;;;;5048468;28;1597;-78
2022/03/06 00:14:00;;;;;;;;;;;;;;;;;;5064065;28;1090;-78
2022/03/06 00:16:26;;;;;;;;;;;;;;;;;;5069903;28;1314;-79
2022/03/06 00:18:51;;;;;;;;;;;;;;;;;;5084516;28;1913;-80
2022/03/06 00:21:16;;;;;;;;;;;;;;;;;;5068131;28;1210;-79
2022/03/06 00:23:41;;;;;;;;;;;;;;;;;;5064669;28;1245;-79
2022/03/06 00:26:08;;;;;;;;;;;;;;;;;;5060575;28;1236;-79
2022/03/06 00:28:33;;;;;;;;;;;;;;;;;;5045617;28;1320;-79
2022/03/06 00:30:59;;;;;;;;;;;;;;;;;;5068541;28;1354;-78
2022/03/06 00:33:24;;;;;;;;;;;;;;;;;;5073096;28;1230;-78
2022/03/06 00:35:49;;;;;;;;;;;;;;;;;;5083547;28;1276;-79
2022/03/06 00:38:14;;;;;;;;;;;;;;;;;;5085633;28;1961;-79
2022/03/06 00:40:42;;;;;;;;;;;;;;;;;;5063557;28;1171;-78
2022/03/06 00:43:07;;;;;;;;;;;;;;;;;;5083815;28;1361;-79
2022/03/06 00:45:32;;;;;;;;;;;;;;;;;;5084283;28;1151;-78
2022/03/06 00:47:58;;;;;;;;;;;;;;;;;;5084524;28;1170;-78
2022/03/06 00:50:23;;;;;;;;;;;;;;;;;;5066167;28;1215;-79
2022/03/06 00:52:48;;;;;;;;;;;;;;;;;;5073764;28;1148;-78
2022/03/06 00:55:13;;;;;;;;;;;;;;;;;;5083033;28;1180;-79
2022/03/06 00:57:39;;;;;;;;;;;;;;;;;;5064315;28;1901;-78
2022/03/06 01:00:06;;;;;;;;;;;;;;;;;;5067602;28;1291;-79
2022/03/06 01:02:31;;;;;;;;;;;;;;;;;;5072018;28;1246;-79
2022/03/06 01:04:56;;;;;;;;;;;;;;;;;;5064333;28;1403;-79
2022/03/06 01:07:21;;;;;;;;;;;;;;;;;;5063369;28;1207;-79
2022/03/06 01:09:47;;;;;;;;;;;;;;;;;;5083047;28;1231;-79
2022/03/06 01:12:15;;;;;;;;;;;;;;;;;;5080072;28;1151;-79
2022/03/06 01:14:41;;;;;;;;;;;;;;;;;;5073223;28;1241;-79
2022/03/06 01:17:06;;;;;;;;;;;;;;;;;;5063841;28;1985;-78
2022/03/06 01:19:31;;;;;;;;;;;;;;;;;;5065359;28;1056;-79
2022/03/06 01:21:57;;;;;;;;;;;;;;;;;;5047345;28;1216;-79
2022/03/06 01:24:22;;;;;;;;;;;;;;;;;;5049595;28;1263;-79
2022/03/06 01:26:47;;;;;;;;;;;;;;;;;;5061694;28;1263;-80
2022/03/06 01:29:18;;;;;;;;;;;;;;;;;;5064444;28;1129;-80
2022/03/06 01:31:43;;;;;;;;;;;;;;;;;;5066667;28;1140;-79
2022/03/06 01:34:08;;;;;;;;;;;;;;;;;;5051982;28;1635;-80
2022/03/06 01:36:33;;;;;;;;;;;;;;;;;;5068101;28;1176;-79
2022/03/06 01:38:59;;;;;;;;;;;;;;;;;;5048084;28;1894;-81
2022/03/06 01:41:25;;;;;;;;;;;;;;;;;;5063206;28;1410;-80
2022/03/06 01:43:50;;;;;;;;;;;;;;;;;;5067790;28;1244;-81
2022/03/06 01:46:17;;;;;;;;;;;;;;;;;;5065882;28;1144;-81
2022/03/06 01:48:42;;;;;;;;;;;;;;;;;;5066474;28;1206;-80
2022/03/06 01:51:07;;;;;;;;;;;;;;;;;;5071364;28;1215;-81
2022/03/06 01:53:33;;;;;;;;;;;;;;;;;;5048871;28;1170;-81
2022/03/06 01:55:59;;;;;;;;;;;;;;;;;;5044781;28;1387;-80
2022/03/06 01:58:24;;;;;;;;;;;;;;;;;;5077070;28;1890;-81
2022/03/06 02:00:49;;;;;;;;;;;;;;;;;;5048960;28;1220;-80
2022/03/06 02:03:18;;;;;;;;;;;;;;;;;;5085001;28;1239;-81
2022/03/06 02:05:44;;;;;;;;;;;;;;;;;;5068965;28;1283;-80
2022/03/06 02:08:09;;;;;;;;;;;;;;;;;;5084962;28;1183;-81
2022/03/06 02:10:35;;;;;;;;;;;;;;;;;;5079893;28;1192;-80
2022/03/06 02:13:00;;;;;;;;;;;;;;;;;;5073560;28;1167;-78
2022/03/06 02:15:25;;;;;;;;;;;;;;;;;;5064240;28;1184;-79
2022/03/06 02:17:51;;;;;;;;;;;;;;;;;;5050213;28;2347;-79
2022/03/06 02:20:21;;;;;;;;;;;;;;;;;;5066528;28;1166;-79
2022/03/06 02:22:47;;;;;;;;;;;;;;;;;;5082576;28;1217;-80
2022/03/06 02:25:21;;;;;;;;;;;;;;;;;;5064002;28;1346;-79
2022/03/06 02:27:47;;;;;;;;;;;;;;;;;;5073343;28;1194;-79
2022/03/06 02:30:14;;;;;;;;;;;;;;;;;;5085242;28;1407;-79
2022/03/06 02:32:39;;;;;;;;;;;;;;;;;;5086188;28;1195;-79
2022/03/06 02:35:05;;;;;;;;;;;;;;;;;;5060095;28;1296;-80
2022/03/06 02:37:30;;;;;;;;;;;;;;;;;;5067177;28;1890;-79
2022/03/06 02:39:58;;;;;;;;;;;;;;;;;;5066753;28;1153;-78
2022/03/06 02:42:32;;;;;;;;;;;;;;;;;;5062404;28;1207;-79
2022/03/06 02:44:58;;;;;;;;;;;;;;;;;;5067404;28;1116;-80
2022/03/06 02:47:24;;;;;;;;;;;;;;;;;;5076736;28;1157;-80
2022/03/06 02:49:49;;;;;;;;;;;;;;;;;;5065499;28;1235;-80
2022/03/06 02:52:14;;;;;;;;;;;;;;;;;;5076563;28;1093;-80
2022/03/06 02:54:40;;;;;;;;;;;;;;;;;;5079027;28;1376;-80
2022/03/06 02:57:06;;;;;;;;;;;;;;;;;;5067205;28;1429;-80
2022/03/06 02:59:33;;;;;;;;;;;;;;;;;;5090320;28;1310;-80
2022/03/06 03:01:58;;;;;;;;;;;;;;;;;;5102647;28;1159;-80
2022/03/06 03:04:24;;;;;;;;;;;;;;;;;;5067780;28;1257;-79
2022/03/06 03:06:50;;;;;;;;;;;;;;;;;;5087384;28;1433;-79
2022/03/06 03:09:19;;;;;;;;;;;;;;;;;;5081520;28;1282;-79
2022/03/06 03:11:46;;;;;;;;;;;;;;;;;;5070960;28;1179;-78
2022/03/06 03:14:12;;;;;;;;;;;;;;;;;;5087567;28;1263;-80
2022/03/06 03:16:37;;;;;;;;;;;;;;;;;;5068001;28;1104;-79
2022/03/06 03:19:03;;;;;;;;;;;;;;;;;;5088650;28;1991;-79
2022/03/06 03:21:28;;;;;;;;;;;;;;;;;;5086679;28;1218;-79
2022/03/06 03:23:54;;;;;;;;;;;;;;;;;;5072122;28;1211;-79
2022/03/06 03:26:21;;;;;;;;;;;;;;;;;;5049241;28;1259;-79
2022/03/06 03:28:46;;;;;;;;;;;;;;;;;;5065555;28;1401;-79
2022/03/06 03:31:12;;;;;;;;;;;;;;;;;;5085412;28;1195;-80
2022/03/06 03:33:37;;;;;;;;;;;;;;;;;;5067385;28;1116;-78
2022/03/06 03:36:03;;;;;;;;;;;;;;;;;;5068044;28;1167;-79
2022/03/06 03:38:28;;;;;;;;;;;;;;;;;;5069891;28;1890;-80
2022/03/06 03:40:53;;;;;;;;;;;;;;;;;;5079947;28;1175;-79
2022/03/06 03:43:19;;;;;;;;;;;;;;;;;;5086081;28;1164;-79
2022/03/06 03:45:44;;;;;;;;;;;;;;;;;;5101740;28;1069;-79
2022/03/06 03:48:09;;;;;;;;;;;;;;;;;;5086676;28;1167;-80
2022/03/06 03:50:35;;;;;;;;;;;;;;;;;;5085210;28;1212;-79
2022/03/06 03:53:00;;;;;;;;;;;;;;;;;;5106185;28;1123;-79
2022/03/06 03:55:26;;;;;;;;;;;;;;;;;;5103498;28;1218;-79
2022/03/06 03:57:52;;;;;;;;;;;;;;;;;;5053644;28;1890;-79
2022/03/06 04:00:17;;;;;;;;;;;;;;;;;;5067704;28;1260;-79
2022/03/06 04:02:42;;;;;;;;;;;;;;;;;;5071887;28;1168;-78
2022/03/06 04:05:08;;;;;;;;;;;;;;;;;;5087216;28;1175;-79
2022/03/06 04:07:33;;;;;;;;;;;;;;;;;;5086334;28;1080;-78
2022/03/06 04:09:58;;;;;;;;;;;;;;;;;;5068261;28;1235;-79
2022/03/06 04:12:24;;;;;;;;;;;;;;;;;;5063519;28;1269;-79
2022/03/06 04:14:50;;;;;;;;;;;;;;;;;;5062073;28;1286;-78
2022/03/06 04:17:15;;;;;;;;;;;;;;;;;;5055003;28;1918;-79
2022/03/06 04:19:40;;;;;;;;;;;;;;;;;;5085073;28;1085;-79
2022/03/06 04:22:06;;;;;;;;;;;;;;;;;;5068121;28;1223;-79
2022/03/06 04:24:31;;;;;;;;;;;;;;;;;;5087532;28;1139;-79
2022/03/06 04:26:56;;;;;;;;;;;;;;;;;;5087047;28;1226;-79
2022/03/06 04:29:22;;;;;;;;;;;;;;;;;;5071622;28;1144;-79
2022/03/06 04:31:47;;;;;;;;;;;;;;;;;;5086426;28;1294;-78
2022/03/06 04:34:12;;;;;;;;;;;;;;;;;;5087812;28;1191;-78
2022/03/06 04:36:38;;;;;;;;;;;;;;;;;;5084305;28;1048;-79
2022/03/06 04:39:04;;;;;;;;;;;;;;;;;;5083560;28;1894;-79
2022/03/06 04:41:29;;;;;;;;;;;;;;;;;;5082552;28;1297;-78
2022/03/06 04:43:54;;;;;;;;;;;;;;;;;;5087478;28;1280;-78
2022/03/06 04:46:20;;;;;;;;;;;;;;;;;;5081919;28;1359;-79
2022/03/06 04:48:46;;;;;;;;;;;;;;;;;;5070072;28;1316;-80
2022/03/06 04:51:11;;;;;;;;;;;;;;;;;;5089384;28;1223;-79
2022/03/06 04:53:36;;;;;;;;;;;;;;;;;;5073378;28;1200;-79
2022/03/06 04:56:02;;;;;;;;;;;;;;;;;;5065815;28;1354;-79
2022/03/06 04:58:31;;;;;;;;;;;;;;;;;;5068529;28;1883;-79
2022/03/06 05:00:56;;;;;;;;;;;;;;;;;;5063409;28;1282;-79
2022/03/06 05:03:22;;;;;;;;;;;;;;;;;;5064093;28;1424;-79
2022/03/06 05:05:48;;;;;;;;;;;;;;;;;;5066220;28;1164;-79
2022/03/06 05:08:13;;;;;;;;;;;;;;;;;;5065125;28;1265;-79
2022/03/06 05:10:38;;;;;;;;;;;;;;;;;;5063963;28;1212;-79
2022/03/06 05:13:03;;;;;;;;;;;;;;;;;;5086232;28;1179;-78
2022/03/06 05:15:32;;;;;;;;;;;;;;;;;;5068712;28;1231;-79
2022/03/06 05:17:58;;;;;;;;;;;;;;;;;;5079190;28;1905;-79
2022/03/06 05:20:23;;;;;;;;;;;;;;;;;;5080508;28;1156;-78
2022/03/06 05:22:48;;;;;;;;;;;;;;;;;;5065964;28;1269;-79
2022/03/06 05:25:14;;;;;;;;;;;;;;;;;;5065300;28;1253;-78
2022/03/06 05:27:40;;;;;;;;;;;;;;;;;;5044284;28;1345;-79
2022/03/06 05:30:06;;;;;;;;;;;;;;;;;;5050551;28;1341;-79
2022/03/06 05:32:35;;;;;;;;;;;;;;;;;;5067254;28;1148;-79
2022/03/06 05:35:00;;;;;;;;;;;;;;;;;;5050481;28;1356;-78
2022/03/06 05:37:25;;;;;;;;;;;;;;;;;;5066303;28;1894;-79
2022/03/06 05:39:50;;;;;;;;;;;;;;;;;;5046319;28;1178;-80
2022/03/06 05:42:16;;;;;;;;;;;;;;;;;;5063185;28;1140;-80
2022/03/06 05:44:42;;;;;;;;;;;;;;;;;;5065929;28;1057;-80
2022/03/06 05:47:07;;;;;;;;;;;;;;;;;;5067374;28;1246;-79
2022/03/06 05:49:36;;;;;;;;;;;;;;;;;;5049196;28;1812;-79
2022/03/06 05:52:02;;;;;;;;;;;;;;;;;;5065681;28;1250;-79
2022/03/06 05:54:28;;;;;;;;;;;;;;;;;;5063854;28;1321;-78
2022/03/06 05:56:53;;;;;;;;;;;;;;;;;;5061285;28;1047;-79
2022/03/06 05:59:18;;;;;;;;;;;;;;;;;;5083729;28;1955;-79
2022/03/06 06:01:43;;;;;;;;;;;;;;;;;;5073261;28;1533;-78
2022/03/06 06:04:09;;;;;;;;;;;;;;;;;;5067548;28;1227;-78
2022/03/06 06:06:37;;;;;;;;;;;;;;;;;;5065241;28;1227;-79
2022/03/06 06:09:03;;;;;;;;;;;;;;;;;;5064574;28;1229;-79
2022/03/06 06:11:28;;;;;;;;;;;;;;;;;;5080142;28;1148;-79
2022/03/06 06:13:53;;;;;;;;;;;;;;;;;;5085369;28;1268;-79
2022/03/06 06:16:18;;;;;;;;;;;;;;;;;;5061464;28;1263;-78
2022/03/06 06:18:47;;;;;;;;;;;;;;;;;;5073723;28;1971;-79
2022/03/06 06:21:13;;;;;;;;;;;;;;;;;;5066120;28;1235;-79
2022/03/06 06:23:39;;;;;;;;;;;;;;;;;;5063954;28;1488;-79
2022/03/06 06:26:04;;;;;;;;;;;;;;;;;;5061702;28;1198;-79
2022/03/06 06:28:30;;;;;;;;;;;;;;;;;;5070445;28;1181;-79
2022/03/06 06:30:55;;;;;;;;;;;;;;;;;;5075191;28;1417;-79
2022/03/06 06:33:20;;;;;;;;;;;;;;;;;;5050554;28;1290;-79
2022/03/06 06:35:46;;;;;;;;;;;;;;;;;;5069391;28;1219;-79
2022/03/06 06:38:11;;;;;;;;;;;;;;;;;;5069419;28;1947;-79
2022/03/06 06:40:37;;;;;;;;;;;;;;;;;;5047511;28;1200;-79
2022/03/06 06:43:03;;;;;;;;;;;;;;;;;;5046867;28;1210;-79
2022/03/06 06:45:28;;;;;;;;;;;;;;;;;;5056022;28;1273;-79
2022/03/06 06:47:54;;;;;;;;;;;;;;;;;;5056552;28;1329;-78
2022/03/06 06:50:19;;;;;;;;;;;;;;;;;;5082869;28;1140;-78
2022/03/06 06:52:44;;;;;;;;;;;;;;;;;;5078978;28;1246;-78
2022/03/06 06:55:10;;;;;;;;;;;;;;;;;;5068777;28;1231;-79
2022/03/06 06:57:36;;;;;;;;;;;;;;;;;;5047137;28;1945;-79
2022/03/06 07:00:02;;;;;;;;;;;;;;;;;;5079135;28;1077;-80
2022/03/06 07:02:27;;;;;;;;;;;;;;;;;;5085276;28;1403;-80
2022/03/06 07:04:53;;;;;;;;;;;;;;;;;;5074852;28;1143;-79
2022/03/06 07:07:18;;;;;;;;;;;;;;;;;;5075230;28;1295;-79
2022/03/06 07:09:43;;;;;;;;;;;;;;;;;;5067421;28;1163;-79
2022/03/06 07:12:09;;;;;;;;;;;;;;;;;;5071032;28;1292;-79
2022/03/06 07:14:35;;;;;;;;;;;;;;;;;;5076877;28;1333;-80
2022/03/06 07:17:00;;;;;;;;;;;;;;;;;;5083923;28;1269;-80
2022/03/06 07:19:25;;;;;;;;;;;;;;;;;;5067496;28;1973;-79
2022/03/06 07:21:51;;;;;;;;;;;;;;;;;;5064741;28;1402;-79
2022/03/06 07:24:16;;;;;;;;;;;;;;;;;;5066930;28;1113;-78
2022/03/06 07:26:45;;;;;;;;;;;;;;;;;;5073733;28;1216;-79
2022/03/06 07:29:10;;;;;;;;;;;;;;;;;;5084280;28;1171;-79
2022/03/06 07:31:35;;;;;;;;;;;;;;;;;;5082861;28;1214;-80
2022/03/06 07:34:01;;;;;;;;;;;;;;;;;;5067012;28;1191;-79
2022/03/06 07:36:26;;;;;;;;;;;;;;;;;;5077402;28;1412;-78
2022/03/06 07:38:57;;;;;;;;;;;;;;;;;;5051153;28;1959;-78
2022/03/06 07:41:25;;;;;;;;;;;;;;;;;;5082281;28;1246;-79
2022/03/06 07:43:50;;;;;;;;;;;;;;;;;;5083850;28;1163;-80
2022/03/06 07:46:16;;;;;;;;;;;;;;;;;;5084348;28;1207;-79
2022/03/06 07:48:41;;;;;;;;;;;;;;;;;;5068781;28;1285;-78
2022/03/06 07:51:06;;;;;;;;;;;;;;;;;;5079189;28;1195;-80
2022/03/06 07:53:31;;;;;;;;;;;;;;;;;;5049323;28;1347;-83
2022/03/06 07:55:57;;;;;;;;;;;;;;;;;;5071803;28;1159;-81
2022/03/06 07:58:23;;;;;;;;;;;;;;;;;;5069766;28;1890;-82
2022/03/06 08:00:48;;;;;;;;;;;;;;;;;;5077374;28;1300;-81
2022/03/06 08:03:15;;;;;;;;;;;;;;;;;;5084433;28;1341;-82
2022/03/06 08:05:40;;;;;;;;;;;;;;;;;;5087367;28;1241;-80
2022/03/06 08:08:06;;;;;;;;;;;;;;;;;;5075142;28;1152;-81
2022/03/06 08:10:31;;;;;;;;;;;;;;;;;;5068856;28;1223;-81
2022/03/06 08:12:56;;;;;;;;;;;;;;;;;;5066019;28;1203;-82
2022/03/06 08:15:22;;;;;;;;;;;;;;;;;;5102573;28;1369;-80
2022/03/06 08:17:51;;;;;;;;;;;;;;;;;;5079622;28;1913;-81
2022/03/06 08:20:16;;;;;;;;;;;;;;;;;;5070667;28;1170;-81
2022/03/06 08:22:42;;;;;;;;;;;;;;;;;;5095238;28;1238;-80
2022/03/06 08:25:07;;;;;;;;;;;;;;;;;;5080547;28;1152;-82
2022/03/06 08:27:33;;;;;;;;;;;;;;;;;;5068410;28;1240;-80
2022/03/06 08:30:01;;;;;;;;;;;;;;;;;;5070154;28;1259;-81
2022/03/06 08:32:30;;;;;;;;;;;;;;;;;;5088827;28;1095;-79
2022/03/06 08:35:05;;;;;;;;;;;;;;;;;;5067003;28;1381;-80
2022/03/06 08:37:30;;;;;;;;;;;;;;;;;;5061285;28;1933;-80
2022/03/06 08:39:56;;;;;;;;;;;;;;;;;;5065544;28;1179;-80
2022/03/06 08:42:21;;;;;;;;;;;;;;;;;;5058255;28;1287;-80
2022/03/06 08:44:46;;;;;;;;;;;;;;;;;;5070248;28;1330;-81
2022/03/06 08:47:11;;;;;;;;;;;;;;;;;;5078682;28;1207;-81
2022/03/06 08:49:37;;;;;;;;;;;;;;;;;;5073022;28;1226;-81
2022/03/06 08:52:02;;;;;;;;;;;;;;;;;;5060556;28;1346;-80
2022/03/06 08:54:27;;;;;;;;;;;;;;;;;;5053175;28;1211;-81
2022/03/06 08:56:56;;;;;;;;;;;;;;;;;;5053969;28;1215;-81
2022/03/06 08:59:21;;;;;;;;;;;;;;;;;;5108559;28;1886;-80
2022/03/06 09:01:47;;;;;;;;;;;;;;;;;;5058168;28;1304;-80
2022/03/06 09:04:12;;;;;;;;;;;;;;;;;;5067441;28;1219;-79
2022/03/06 09:06:39;;;;;;;;;;;;;;;;;;5056296;28;1290;-80
2022/03/06 09:09:04;;;;;;;;;;;;;;;;;;5064587;28;1226;-81
2022/03/06 09:11:33;;;;;;;;;;;;;;;;;;5072377;28;1194;-78
2022/03/06 09:13:59;;;;;;;;;;;;;;;;;;5084838;28;1211;-80
2022/03/06 09:16:25;;;;;;;;;;;;;;;;;;5054410;28;1088;-80
2022/03/06 09:19:01;;;;;;;;;;;;;;;;;;5089197;28;1909;-81
2022/03/06 09:21:27;;;;;;;;;;;;;;;;;;5086565;28;1437;-80
2022/03/06 09:24:02;;;;;;;;;;;;;;;;;;5069651;28;1179;-80
2022/03/06 09:26:27;;;;;;;;;;;;;;;;;;5058415;28;1239;-81
2022/03/06 09:28:53;;;;;;;;;;;;;;;;;;5080893;28;1128;-80
2022/03/06 09:31:19;;;;;;;;;;;;;;;;;;5079863;28;1330;-80
2022/03/06 09:33:47;;;;;;;;;;;;;;;;;;5072663;28;1209;-78
2022/03/06 09:36:13;;;;;;;;;;;;;;;;;;5064913;28;1153;-80
2022/03/06 09:38:38;;;;;;;;;;;;;;;;;;5067714;28;1902;-78
2022/03/06 09:41:04;;;;;;;;;;;;;;;;;;5080006;28;1132;-79
2022/03/06 09:43:30;;;;;;;;;;;;;;;;;;5086157;28;1159;-80
2022/03/06 09:46:02;;;;;;;;;;;;;;;;;;5054948;28;1208;-80
2022/03/06 09:48:29;;;;;;;;;;;;;;;;;;5066095;28;1182;-80
2022/03/06 09:50:58;;;;;;;;;;;;;;;;;;5064319;28;1528;-80
2022/03/06 09:53:24;;;;;;;;;;;;;;;;;;5068449;28;1140;-81
2022/03/06 09:55:49;;;;;;;;;;;;;;;;;;5047102;28;1217;-77
2022/03/06 09:58:14;;;;;;;;;;;;;;;;;;5072553;28;1897;-77
2022/03/06 10:00:40;;;;;;;;;;;;;;;;;;5053296;28;1257;-80
2022/03/06 10:03:06;;;;;;;;;;;;;;;;;;5100816;28;1222;-79
2022/03/06 10:05:33;;;;;;;;;;;;;;;;;;5090666;28;1080;-80
2022/03/06 10:08:18;;;;;;;;;;;;;;;;;;5099645;28;1312;-76
2022/03/06 10:10:44;;;;;;;;;;;;;;;;;;5094679;28;1187;-79
2022/03/06 10:13:25;;;;;;;;;;;;;;;;;;5096921;28;1092;-78
2022/03/06 10:16:02;;;;;;;;;;;;;;;;;;5084149;28;1223;-79
2022/03/06 10:18:48;;;;;;;;;;;;;;;;;;5076101;28;1902;-77
2022/03/06 10:21:18;;;;;;;;;;;;;;;;;;5102555;28;1061;-78
2022/03/06 10:23:47;;;;;;;;;;;;;;;;;;5093865;28;1309;-78
2022/03/06 10:26:15;;;;;;;;;;;;;;;;;;5075027;28;1244;-78
2022/03/06 10:28:49;;;;;;;;;;;;;;;;;;5071656;28;1260;-77
2022/03/06 10:31:15;;;;;;;;;;;;;;;;;;5070987;28;1236;-78
2022/03/06 10:33:41;;;;;;;;;;;;;;;;;;5061018;28;1486;-78
2022/03/06 10:36:07;;;;;;;;;;;;;;;;;;5087869;28;1174;-78
2022/03/06 10:38:33;;;;;;;;;;;;;;;;;;5111016;28;1890;-78
2022/03/06 10:41:09;;;;;;;;;;;;;;;;;;5086330;28;1180;-79
2022/03/06 10:43:35;;;;;;;;;;;;;;;;;;5109974;28;1048;-78
2022/03/06 10:46:17;;;;;;;;;;;;;;;;;;5071665;28;1133;-78
2022/03/06 10:48:43;;;;;;;;;;;;;;;;;;5093533;28;1211;-79
2022/03/06 10:51:10;;;;;;;;;;;;;;;;;;5092897;28;1384;-78
2022/03/06 10:53:36;;;;;;;;;;;;;;;;;;5107882;28;1127;-78
2022/03/06 10:56:12;;;;;;;;;;;;;;;;;;5084760;28;1338;-77
2022/03/06 10:58:39;;;;;;;;;;;;;;;;;;5107331;28;1890;-78
2022/03/06 11:01:05;;;;;;;;;;;;;;;;;;5089789;28;1275;-78
2022/03/06 11:03:35;;;;;;;;;;;;;;;;;;5092098;28;1208;-78
2022/03/06 11:06:02;;;;;;;;;;;;;;;;;;5088827;28;1227;-79
2022/03/06 11:08:27;;;;;;;;;;;;;;;;;;5090006;28;1318;-78
2022/03/06 11:10:53;;;;;;;;;;;;;;;;;;5084283;28;1219;-78
2022/03/06 11:13:18;;;;;;;;;;;;;;;;;;5106103;28;1076;-79
2022/03/06 11:15:43;;;;;;;;;;;;;;;;;;5072781;28;1267;-79
2022/03/06 11:18:09;;;;;;;;;;;;;;;;;;5087443;28;1977;-75
2022/03/06 11:20:35;;;;;;;;;;;;;;;;;;5069264;28;1060;-76
2022/03/06 11:23:20;;;;;;;;;;;;;;;;;;5067940;28;1219;-75
2022/03/06 11:25:51;;;;;;;;;;;;;;;;;;5070940;28;1266;-78
2022/03/06 11:28:31;;;;;;;;;;;;;;;;;;5086598;28;1171;-80
2022/03/06 11:30:58;;;;;;;;;;;;;;;;;;5087977;28;1130;-80
2022/03/06 11:33:23;;;;;;;;;;;;;;;;;;5088358;28;1132;-80
2022/03/06 11:35:50;;;;;;;;;;;;;;;;;;5082516;28;1156;-80
2022/03/06 11:38:20;;;;;;;;;;;;;;;;;;5054923;28;1969;-82
2022/03/06 11:40:51;;;;;;;;;;;;;;;;;;5086731;28;1292;-80
2022/03/06 11:43:29;;;;;;;;;;;;;;;;;;5084796;28;1425;-80
2022/03/06 11:46:06;;;;;;;;;;;;;;;;;;5080435;28;1358;-81
2022/03/06 11:48:32;;;;;;;;;;;;;;;;;;5071183;28;1311;-80
2022/03/06 11:51:19;;;;;;;;;;;;;;;;;;5081522;28;1200;-80
2022/03/06 11:54:07;;;;;;;;;;;;;;;;;;5068365;28;1221;-82
2022/03/06 11:56:35;;;;;;;;;;;;;;;;;;5066557;28;1187;-80
2022/03/06 11:59:01;;;;;;;;;;;;;;;;;;5080459;28;1882;-82
2022/03/06 12:01:27;;;;;;;;;;;;;;;;;;5084229;28;1211;-80
2022/03/06 12:04:22;;;;;;;;;;;;;;;;;;5057003;28;1196;-80
2022/03/06 12:06:48;;;;;;;;;;;;;;;;;;5055728;28;1213;-79
2022/03/06 12:09:15;;;;;;;;;;;;;;;;;;5090011;28;1144;-81
2022/03/06 12:11:41;;;;;;;;;;;;;;;;;;5095831;28;1132;-81
2022/03/06 12:14:13;;;;;;;;;;;;;;;;;;5079395;28;1100;-82
2022/03/06 12:16:57;;;;;;;;;;;;;;;;;;5097264;28;1190;-83
2022/03/06 12:19:22;;;;;;;;;;;;;;;;;;5098995;28;1967;-81
2022/03/06 12:21:47;;;;;;;;;;;;;;;;;;5067441;28;1231;-81
2022/03/06 12:24:26;;;;;;;;;;;;;;;;;;5068872;28;1182;-81
2022/03/06 12:26:52;;;;;;;;;;;;;;;;;;5065980;28;1231;-80
2022/03/06 12:29:36;;;;;;;;;;;;;;;;;;5070693;28;1217;-83
2022/03/06 12:32:20;;;;;;;;;;;;;;;;;;5087052;28;1195;-82
2022/03/06 12:34:46;;;;;;;;;;;;;;;;;;5104532;28;1179;-80
2022/03/06 12:37:14;;;;;;;;;;;;;;;;;;5086125;28;1154;-83
2022/03/06 12:39:39;;;;;;;;;;;;;;;;;;5064549;28;1982;-81
2022/03/06 12:42:05;;;;;;;;;;;;;;;;;;5075304;28;1126;-77
2022/03/06 12:44:31;;;;;;;;;;;;;;;;;;5076821;28;1297;-80
2022/03/06 12:46:56;;;;;;;;;;;;;;;;;;5085378;28;1084;-84
2022/03/06 12:49:23;;;;;;;;;;;;;;;;;;5051521;28;1231;-79
2022/03/06 12:51:50;;;;;;;;;;;;;;;;;;5069659;28;1116;-78
2022/03/06 12:54:18;;;;;;;;;;;;;;;;;;5083196;28;1169;-80
2022/03/06 12:56:43;;;;;;;;;;;;;;;;;;5082173;28;1333;-80
2022/03/06 12:59:16;;;;;;;;;;;;;;;;;;5082534;28;1901;-77
2022/03/06 13:01:43;;;;;;;;;;;;;;;;;;5086652;28;1336;-77
2022/03/06 13:04:14;;;;;;;;;;;;;;;;;;5079883;28;1247;-79
2022/03/06 13:06:40;;;;;;;;;;;;;;;;;;5066029;28;1171;-78
2022/03/06 13:09:05;;;;;;;;;;;;;;;;;;5078234;28;1208;-79
2022/03/06 13:11:34;;;;;;;;;;;;;;;;;;5078102;28;1247;-80
2022/03/06 13:14:04;;;;;;;;;;;;;;;;;;5067318;28;1320;-78
2022/03/06 13:16:29;;;;;;;;;;;;;;;;;;5086265;28;1203;-79
2022/03/06 13:18:59;;;;;;;;;;;;;;;;;;5068295;28;1918;-78
2022/03/06 13:21:25;;;;;;;;;;;;;;;;;;5101386;28;1073;-76
2022/03/06 13:23:58;;;;;;;;;;;;;;;;;;5069064;28;1239;-80
2022/03/06 13:26:27;;;;;;;;;;;;;;;;;;5073138;28;1249;-79
2022/03/06 13:28:53;;;;;;;;;;;;;;;;;;5086623;28;1132;-80
2022/03/06 13:31:19;;;;;;;;;;;;;;;;;;5069492;28;1160;-79
2022/03/06 13:33:58;;;;;;;;;;;;;;;;;;5089758;28;1191;-80
2022/03/06 13:36:25;;;;;;;;;;;;;;;;;;5066541;28;1214;-79
2022/03/06 13:38:57;;;;;;;;;;;;;;;;;;5076918;28;1894;-79
2022/03/06 13:41:24;;;;;;;;;;;;;;;;;;5084695;28;1186;-79
2022/03/06 13:43:50;;;;;;;;;;;;;;;;;;5091124;28;1268;-78
2022/03/06 13:46:20;;;;;;;;;;;;;;;;;;5055268;28;1278;-80
2022/03/06 13:48:45;;;;;;;;;;;;;;;;;;5059539;28;1397;-80
2022/03/06 13:51:21;;;;;;;;;;;;;;;;;;5086244;28;1264;-80
2022/03/06 13:53:57;;;;;;;;;;;;;;;;;;5091740;28;1287;-86
2022/03/06 13:56:30;;;;;;;;;;;;;;;;;;5082899;28;1145;-80
2022/03/06 13:58:55;;;;;;;;;;;;;;;;;;5072094;28;1960;-81
2022/03/06 14:01:21;;;;;;;;;;;;;;;;;;5064372;28;1146;-82
2022/03/06 14:03:46;;;;;;;;;;;;;;;;;;5073602;28;1226;-79
2022/03/06 14:06:12;;;;;;;;;;;;;;;;;;5085070;28;1231;-78
2022/03/06 14:08:38;;;;;;;;;;;;;;;;;;5058895;28;1198;-78
2022/03/06 14:11:04;;;;;;;;;;;;;;;;;;5081047;28;1479;-77
2022/03/06 14:13:35;;;;;;;;;;;;;;;;;;5064621;28;1474;-81
2022/03/06 14:16:01;;;;;;;;;;;;;;;;;;5064959;28;1368;-77
2022/03/06 14:18:35;;;;;;;;;;;;;;;;;;5064221;28;1961;-76
2022/03/06 14:21:09;;;;;;;;;;;;;;;;;;5075615;28;1168;-77
2022/03/06 14:23:34;;;;;;;;;;;;;;;;;;5081993;28;1231;-83
2022/03/06 14:26:00;;;;;;;;;;;;;;;;;;5063159;28;1273;-76
2022/03/06 14:28:26;;;;;;;;;;;;;;;;;;5083041;28;1238;-79
2022/03/06 14:30:51;;;;;;;;;;;;;;;;;;5084955;28;1287;-77
2022/03/06 14:33:28;;;;;;;;;;;;;;;;;;5084565;28;1332;-76
2022/03/06 14:35:54;;;;;;;;;;;;;;;;;;5071659;28;1056;-79
2022/03/06 14:38:23;;;;;;;;;;;;;;;;;;5065734;28;1898;-80
2022/03/06 14:40:48;;;;;;;;;;;;;;;;;;5074648;28;1352;-81
2022/03/06 14:43:13;;;;;;;;;;;;;;;;;;5060622;28;1333;-81
2022/03/06 14:45:39;;;;;;;;;;;;;;;;;;5072640;28;1144;-81
2022/03/06 14:48:04;;;;;;;;;;;;;;;;;;5087161;28;1148;-82
2022/03/06 14:50:29;;;;;;;;;;;;;;;;;;5088507;28;1062;-81
2022/03/06 14:52:54;;;;;;;;;;;;;;;;;;5073310;28;1325;-83
2022/03/06 14:55:27;;;;;;;;;;;;;;;;;;5068268;28;1328;-82
2022/03/06 14:57:53;;;;;;;;;;;;;;;;;;5074552;28;1901;-81
2022/03/06 15:00:18;;;;;;;;;;;;;;;;;;5072894;28;1137;-81
2022/03/06 15:02:43;;;;;;;;;;;;;;;;;;5066201;28;1219;-81
2022/03/06 15:05:09;;;;;;;;;;;;;;;;;;5068907;28;1136;-80
2022/03/06 15:07:34;;;;;;;;;;;;;;;;;;5069211;28;1305;-83
2022/03/06 15:10:00;;;;;;;;;;;;;;;;;;5050749;28;1190;-81
2022/03/06 15:12:28;;;;;;;;;;;;;;;;;;5070091;28;1367;-82
2022/03/06 15:14:53;;;;;;;;;;;;;;;;;;5087796;28;1214;-80
2022/03/06 15:17:18;;;;;;;;;;;;;;;;;;5075441;28;1143;-82
2022/03/06 15:19:44;;;;;;;;;;;;;;;;;;5067977;28;1910;-81
2022/03/06 15:22:11;;;;;;;;;;;;;;;;;;5068858;28;1413;-83
2022/03/06 15:24:37;;;;;;;;;;;;;;;;;;5048663;28;1416;-81
2022/03/06 15:27:02;;;;;;;;;;;;;;;;;;5065898;28;1516;-80
2022/03/06 15:29:27;;;;;;;;;;;;;;;;;;5070022;28;1259;-81
2022/03/06 15:31:53;;;;;;;;;;;;;;;;;;5075022;28;1203;-82
2022/03/06 15:34:19;;;;;;;;;;;;;;;;;;5069421;28;1190;-81
2022/03/06 15:36:45;;;;;;;;;;;;;;;;;;5064261;28;1210;-80
2022/03/06 15:39:10;;;;;;;;;;;;;;;;;;5063976;28;1960;-83
2022/03/06 15:41:36;;;;;;;;;;;;;;;;;;5065030;28;1383;-82
2022/03/06 15:44:02;;;;;;;;;;;;;;;;;;5088117;28;1064;-84
2022/03/06 15:46:28;;;;;;;;;;;;;;;;;;5068510;28;1301;-81
2022/03/06 15:48:53;;;;;;;;;;;;;;;;;;5086602;28;1191;-82
2022/03/06 15:51:19;;;;;;;;;;;;;;;;;;5078018;28;1177;-82
2022/03/06 15:53:51;;;;;;;;;;;;;;;;;;5073557;28;1223;-82
2022/03/06 15:56:37;;;;;;;;;;;;;;;;;;5072368;28;1139;-84
2022/03/06 15:59:02;;;;;;;;;;;;;;;;;;5077227;28;1898;-83
2022/03/06 16:01:31;;;;;;;;;;;;;;;;;;5059443;28;1351;-81
2022/03/06 16:03:56;;;;;;;;;;;;;;;;;;5102887;28;1237;-79
2022/03/06 16:06:24;;;;;;;;;;;;;;;;;;5080831;28;1203;-82
2022/03/06 16:08:54;;;;;;;;;;;;;;;;;;5064927;28;1260;-82
2022/03/06 16:11:26;;;;;;;;;;;;;;;;;;5062364;28;1208;-76
2022/03/06 16:13:51;;;;;;;;;;;;;;;;;;5078458;28;1168;-76
2022/03/06 16:16:17;;;;;;;;;;;;;;;;;;5064817;28;1302;-76
2022/03/06 16:18:42;;;;;;;;;;;;;;;;;;5081005;28;1902;-74
2022/03/06 16:21:07;;;;;;;;;;;;;;;;;;5076295;28;1183;-75
2022/03/06 16:23:35;;;;;;;;;;;;;;;;;;5074504;28;1259;-75
2022/03/06 16:26:00;;;;;;;;;;;;;;;;;;5078590;28;1256;-74
2022/03/06 16:28:25;;;;;;;;;;;;;;;;;;5062005;28;1205;-74
2022/03/06 16:30:51;;;;;;;;;;;;;;;;;;5078929;28;1308;-75
2022/03/06 16:33:16;;;;;;;;;;;;;;;;;;5063675;28;1184;-75
2022/03/06 16:35:42;;;;;;;;;;;;;;;;;;5077754;28;1533;-75
2022/03/06 16:38:07;;;;;;;;;;;;;;;;;;5081125;28;1921;-75
2022/03/06 16:40:35;;;;;;;;;;;;;;;;;;5078579;28;1179;-74
2022/03/06 16:43:01;;;;;;;;;;;;;;;;;;5063932;28;1192;-74
2022/03/06 16:45:26;;;;;;;;;;;;;;;;;;5088797;28;1136;-75
2022/03/06 16:47:51;;;;;;;;;;;;;;;;;;5042121;28;1200;-74
2022/03/06 16:50:16;;;;;;;;;;;;;;;;;;5063139;28;1174;-74
2022/03/06 16:52:42;;;;;;;;;;;;;;;;;;5076402;28;1399;-75
2022/03/06 16:55:07;;;;;;;;;;;;;;;;;;5078681;28;1243;-74
2022/03/06 16:57:33;;;;;;;;;;;;;;;;;;5074832;28;1254;-76
2022/03/06 16:59:58;;;;;;;;;;;;;;;;;;5057789;28;1889;-75
2022/03/06 17:02:24;;;;;;;;;;;;;;;;;;5043397;28;1230;-75